Latest Weather Observations for Aireys Inlet

IDV60801

Issued at 6:05 am EST Thursday 21 August 2014 (issued every 30 minutes, with the page automatically refreshed every 10 minutes)

About weather observations | Map of weather stations | Latest weather observations for VIC | Other Formats
Station Details ID: 090180 Name: AIREYS INLET Lat: -38.46 Lon: 144.09 Height: 95.0 m
Data from the previous 72 hours. | See also: Recent months at Aireys Inlet
Date/Time
EST
Temp
°C
App
Temp
°C
Dew
Point
Rel
Hum
%
Delta-T
°C
Wind Press
QNH
hPa
Press
MSL
hPa
Rain
since 9 am
mm
Dir
 
Spd
km/h
Gust
km/h
Spd
kts
Gust
kts
21/06:00am 7.8 5.9 6.9 94 0.4 NNE 6 7 3 4 - - 0.0
21/05:30am 8.1 6.2 7.7 97 0.2 N 7 9 4 5 - - 0.0
21/05:00am 7.8 5.9 7.7 99 0.0 N 7 9 4 5 - - 0.0
21/04:30am 7.9 6.2 7.6 98 0.1 N 6 7 3 4 - - 0.0
21/04:00am 7.7 6.0 7.6 99 0.0 NNW 6 7 3 4 - - 0.0
21/03:30am 7.9 6.2 7.5 97 0.2 NNW 6 9 3 5 - - 0.0
21/03:00am 8.5 7.3 7.9 96 0.3 NNW 4 4 2 2 - - 0.0
21/02:30am 8.4 7.1 7.5 94 0.4 NNW 4 4 2 2 - - 0.0
21/02:00am 9.2 8.6 7.3 88 0.9 CALM 0 2 0 1 - - 0.0
21/01:30am 9.3 7.5 7.3 87 0.9 ESE 6 7 3 4 - - 0.0
21/01:00am 9.0 7.7 7.5 90 0.7 E 4 7 2 4 - - 0.0
21/12:30am 9.1 7.4 7.4 89 0.8 ESE 6 7 3 4 - - 0.0
21/12:00am 9.1 7.9 8.0 93 0.5 E 4 7 2 4 - - 0.0
 
Date/Time
EST
Temp
°C
App
Temp
°C
Dew
Point
Rel
Hum
%
Delta-T
°C
Wind Press
QNH
hPa
Press
MSL
hPa
Rain
since 9 am
mm
Dir
 
Spd
km/h
Gust
km/h
Spd
kts
Gust
kts
20/11:30pm 9.6 8.5 8.5 93 0.5 E 4 6 2 3 - - 0.0
20/11:00pm 9.8 8.2 8.9 94 0.4 SE 7 13 4 7 - - 0.0
20/10:30pm 9.2 8.0 8.1 93 0.5 W 4 7 2 4 - - 0.0
20/10:00pm 9.1 8.2 7.7 91 0.7 NW 2 7 1 4 - - 0.0
20/09:30pm 9.4 8.2 8.0 91 0.7 SW 4 7 2 4 - - 0.0
20/09:00pm 9.4 7.0 7.0 85 1.1 WSW 9 13 5 7 - - 0.0
20/08:30pm 9.1 7.2 6.7 85 1.1 W 6 7 3 4 - - 0.0
20/08:00pm 9.1 7.7 7.1 87 0.9 WNW 4 4 2 2 - - 0.0
20/07:30pm 9.2 8.2 7.3 88 0.9 WNW 2 4 1 2 - - 0.0
20/07:00pm 9.3 7.9 7.3 87 0.9 W 4 4 2 2 - - 0.0
20/06:30pm 9.5 8.0 6.9 84 1.2 SW 4 6 2 3 - - 0.0
20/06:00pm 10.5 8.1 7.0 79 1.7 S 9 17 5 9 - - 0.0
20/05:30pm 10.7 10.0 6.8 77 1.9 CALM 0 4 0 2 - - 0.0
20/05:00pm 10.8 7.9 6.4 74 2.1 S 11 20 6 11 - - 0.0
20/04:30pm 12.2 10.0 6.0 66 2.9 S 7 11 4 6 - - 0.0
20/04:00pm 12.5 10.0 6.5 67 2.9 SSW 9 15 5 8 - - 0.0
20/03:30pm 12.3 10.0 5.5 63 3.2 S 7 11 4 6 - - 0.0
20/03:00pm 13.5 11.1 6.8 64 3.2 S 9 15 5 8 - - 0.0
20/02:30pm 13.4 10.5 6.3 62 3.4 S 11 17 6 9 - - 0.0
20/02:00pm 12.7 9.1 5.1 60 3.5 S 13 19 7 10 - - 0.0
20/01:30pm 12.7 9.8 6.3 65 3.1 S 11 17 6 9 - - 0.0
20/01:00pm 13.3 10.0 6.2 62 3.4 SSW 13 20 7 11 - - 0.0
20/12:30pm 13.1 9.8 6.5 64 3.2 S 13 19 7 10 - - 0.0
20/12:00pm 12.2 8.7 5.6 64 3.1 S 13 19 7 10 - - 0.0
20/11:30am 11.7 9.7 6.4 70 2.5 S 6 7 3 4 - - 0.0
20/11:00am 11.0 8.1 6.4 73 2.2 SSE 11 20 6 11 - - 0.0
20/10:30am 11.7 8.4 6.2 69 2.6 S 13 19 7 10 - - 0.0
20/10:00am 12.3 9.3 7.8 74 2.2 S 13 19 7 10 - - 0.0
20/09:30am 10.3 6.6 6.3 76 1.9 S 15 22 8 12 - - 0.0
20/09:00am 9.9 7.8 6.6 80 1.5 SW 7 19 4 10 - - 0.0
20/08:30am 9.3 7.2 6.6 83 1.3 WSW 7 9 4 5 - - 0.0
20/08:00am 8.4 6.9 6.7 89 0.8 NW 4 4 2 2 - - 0.0
20/07:30am 8.2 6.3 6.5 89 0.8 NW 6 9 3 5 - - 0.0
20/07:00am 7.9 5.8 6.5 91 0.6 NNW 7 11 4 6 - - 0.0
20/06:30am 8.0 6.4 6.3 89 0.8 NNW 4 7 2 4 - - 0.0
20/06:00am 8.2 6.9 6.2 87 0.9 NNW 2 7 1 4 - - 0.0
20/05:30am 8.7 6.7 6.3 85 1.1 S 6 9 3 5 - - 0.0
20/05:00am 8.4 6.7 5.7 83 1.2 SW 4 6 2 3 - - 0.0
20/04:30am 9.1 7.1 6.2 82 1.3 SW 6 7 3 4 - - 0.0
20/04:00am 9.2 6.6 6.1 81 1.4 SW 9 13 5 7 - - 0.0
20/03:30am 9.4 5.8 6.7 83 1.3 SW 15 24 8 13 - - 0.0
20/03:00am 9.6 5.9 6.3 80 1.5 SSW 15 22 8 12 - - 0.0
20/02:30am 9.7 6.1 6.6 81 1.5 SSW 15 24 8 13 - - 0.0
20/02:00am 10.1 7.4 5.5 73 2.1 SSE 9 15 5 8 - - 0.0
20/01:30am 10.1 7.0 3.8 65 2.8 SSE 9 17 5 9 - - 0.0
20/01:00am 10.0 5.8 4.0 66 2.7 SSW 15 20 8 11 - - 0.0
20/12:30am 10.0 6.5 3.5 64 2.8 S 11 19 6 10 - - 0.0
20/12:00am 10.0 6.6 4.0 66 2.7 S 11 17 6 9 - - 0.0
 
Date/Time
EST
Temp
°C
App
Temp
°C
Dew
Point
Rel
Hum
%
Delta-T
°C
Wind Press
QNH
hPa
Press
MSL
hPa
Rain
since 9 am
mm
Dir
 
Spd
km/h
Gust
km/h
Spd
kts
Gust
kts
19/11:30pm 10.0 6.5 3.5 64 2.8 S 11 17 6 9 - - 0.0
19/11:00pm 9.9 6.0 3.4 64 2.8 SSW 13 19 7 10 - - 0.0
19/10:30pm 10.0 6.8 3.3 63 2.9 S 9 13 5 7 - - 0.0
19/10:00pm 10.0 6.2 4.0 66 2.7 S 13 22 7 12 - - 0.0
19/09:30pm 9.8 7.4 4.2 68 2.5 SE 6 9 3 5 - - 0.0
19/09:00pm 9.9 7.3 4.1 67 2.6 S 7 11 4 6 - - 0.0
19/08:30pm 9.6 6.5 3.6 66 2.6 S 9 15 5 8 - - 0.0
19/08:00pm 9.9 6.9 4.1 67 2.6 S 9 17 5 9 - - 0.0
19/07:30pm 10.2 6.7 3.7 64 2.9 SSE 11 19 6 10 - - 0.0
19/07:00pm 10.2 6.8 4.1 66 2.7 SSW 11 17 6 9 - - 0.0
19/06:30pm 10.1 6.7 3.8 65 2.8 S 11 17 6 9 - - 0.0
19/06:00pm 10.0 6.1 3.5 64 2.8 SSW 13 17 7 9 - - 0.0
19/05:30pm 10.7 6.9 4.0 63 3.0 SSW 13 19 7 10 - - 0.0
19/05:00pm 11.4 8.1 4.6 63 3.1 SSW 11 17 6 9 - - 0.0
19/04:30pm 12.4 8.8 4.9 60 3.5 SSW 13 20 7 11 - - 0.0
19/04:00pm 12.1 8.1 4.8 61 3.4 SW 15 22 8 12 - - 0.0
19/03:30pm 12.2 8.1 4.4 59 3.6 SSW 15 24 8 13 - - 0.0
19/03:00pm 14.1 10.7 6.0 58 3.9 SSW 13 19 7 10 - - 0.0
19/02:30pm 12.1 8.5 5.0 62 3.3 S 13 20 7 11 - - 0.0
19/02:00pm 13.0 9.6 6.1 63 3.3 SSW 13 22 7 12 - - 0.0
19/01:30pm 12.4 8.6 5.6 63 3.2 SSW 15 22 8 12 - - 0.0
19/01:00pm 12.0 7.8 5.6 65 3.0 SSW 17 26 9 14 - - 0.0
19/12:30pm 12.5 9.2 6.5 67 2.9 SSW 13 20 7 11 - - 0.0
19/12:00pm 12.3 9.4 6.6 68 2.7 SSW 11 20 6 11 - - 0.0
19/11:30am 11.4 8.4 6.1 70 2.5 SW 11 20 6 11 - - 0.0
19/11:00am 11.3 7.5 5.6 68 2.6 SW 15 20 8 11 - - 0.0
19/10:30am 11.0 7.1 5.3 68 2.6 SSW 15 20 8 11 - - 0.0
19/10:00am 10.9 7.3 4.8 66 2.8 SSW 13 20 7 11 - - 0.0
19/09:30am 10.7 7.7 5.9 72 2.2 SSW 11 22 6 12 - - 0.0
19/09:00am 10.5 7.1 5.7 72 2.2 S 13 20 7 11 - - 0.0
19/08:30am 10.5 7.1 6.1 74 2.1 S 13 20 7 11 - - 0.0
19/08:00am 10.3 7.0 6.3 76 1.9 S 13 24 7 13 - - 0.0
19/07:30am 10.2 6.8 6.0 75 2.0 SSW 13 20 7 11 - - 0.0
19/07:00am 10.1 7.2 6.6 79 1.6 S 11 17 6 9 - - 0.0
19/06:30am 9.8 6.2 6.7 81 1.5 S 15 20 8 11 - - 0.0
19/06:00am 10.3 6.9 6.1 75 2.0 S 13 20 7 11 - - 0.0
19/05:30am 10.3 7.3 6.1 75 2.0 S 11 20 6 11 - - 0.0
19/05:00am 10.4 7.7 5.8 73 2.1 SSE 9 17 5 9 - - 0.0
19/04:30am 10.5 7.2 6.3 75 2.0 S 13 19 7 10 - - 0.0
19/04:00am 10.6 7.4 6.7 77 1.8 SSE 13 22 7 12 - - 0.0
19/03:30am 10.7 7.6 7.2 79 1.7 S 13 20 7 11 - - 0.0
19/03:00am 10.8 6.9 7.3 79 1.7 SSE 17 24 9 13 - - 0.0
19/02:30am 10.7 7.8 6.5 75 2.0 SSE 11 17 6 9 - - 0.0
19/02:00am 10.5 7.2 6.3 75 2.0 SSE 13 19 7 10 - - 0.0
19/01:30am 10.1 6.7 6.1 76 1.9 SSE 13 20 7 11 - - 0.0
19/01:00am 10.4 7.0 5.8 73 2.1 SSE 13 19 7 10 - - 0.0
19/12:30am 10.5 7.2 6.3 75 2.0 SSE 13 22 7 12 - - 0.0
19/12:00am 10.7 7.5 5.3 69 2.5 SSE 11 19 6 10 - - 0.0
 
Date/Time
EST
Temp
°C
App
Temp
°C
Dew
Point
Rel
Hum
%
Delta-T
°C
Wind Press
QNH
hPa
Press
MSL
hPa
Rain
since 9 am
mm
Dir
 
Spd
km/h
Gust
km/h
Spd
kts
Gust
kts
18/11:30pm 10.8 8.1 5.8 71 2.3 SSE 9 17 5 9 - - 0.0
18/11:00pm 10.9 7.4 5.4 69 2.5 SE 13 22 7 12 - - 0.0
18/10:30pm 11.0 7.9 5.5 69 2.5 SE 11 19 6 10 - - 0.0
18/10:00pm 11.1 7.7 5.8 70 2.5 SE 13 20 7 11 - - 0.0
18/09:30pm 11.0 8.0 6.2 72 2.3 SE 11 19 6 10 - - 0.0
18/09:00pm 11.1 8.2 6.5 73 2.2 SE 11 20 6 11 - - 0.0
18/08:30pm 11.1 8.2 6.6 74 2.1 SE 11 19 6 10 - - 0.0
18/08:00pm 11.1 8.3 6.8 75 2.0 SE 11 19 6 10 - - 0.0
18/07:30pm 10.9 8.1 7.0 77 1.9 SE 11 17 6 9 - - 0.0
18/07:00pm 10.9 8.1 6.8 76 1.9 SE 11 20 6 11 - - 0.0
18/06:30pm 10.9 8.1 7.0 77 1.9 SE 11 22 6 12 - - 0.0
18/06:00pm 11.2 7.9 6.3 72 2.3 SE 13 22 7 12 - - 0.0
18/05:30pm 11.2 8.0 6.9 75 2.1 SE 13 20 7 11 - - 0.0
18/05:00pm 11.2 8.1 7.1 76 2.0 SSE 13 20 7 11 - - 0.0
18/04:30pm 10.2 7.9 9.1 93 0.5 S 11 17 6 9 - - 0.0
18/04:00pm 10.4 7.0 9.3 93 0.6 SW 17 26 9 14 - - 0.0
18/03:30pm 10.7 6.7 9.0 89 0.8 SSW 20 30 11 16 - - 0.0
18/03:00pm 10.8 6.8 9.1 89 0.8 SSW 20 32 11 17 - - 0.0
18/02:30pm 11.1 7.0 8.5 84 1.3 S 20 30 11 16 - - 0.0
18/02:00pm 11.2 7.0 8.2 82 1.5 S 20 32 11 17 - - 0.0
18/01:30pm 11.4 7.0 7.3 76 2.0 S 20 30 11 16 - - 0.0
18/01:00pm 11.6 7.4 7.3 75 2.1 S 19 30 10 16 - - 0.0
18/12:30pm 11.4 6.5 6.7 73 2.2 S 22 32 12 17 - - 0.0
18/12:00pm 11.4 6.9 7.1 75 2.1 S 20 33 11 18 - - 0.0
18/11:30am 11.5 6.7 7.4 76 2.0 S 22 32 12 17 - - 0.0
18/11:00am 11.3 6.5 7.2 76 2.0 S 22 33 12 18 - - 0.0
18/10:30am 11.0 6.6 7.3 78 1.8 S 20 30 11 16 - - 0.0
18/10:00am 10.9 6.0 7.0 77 1.9 S 22 33 12 18 - - 0.0
18/09:30am 10.8 5.6 7.3 79 1.7 S 24 35 13 19 - - 0.0
18/09:00am 10.8 6.3 6.9 77 1.9 S 20 32 11 17 - - 0.0
18/08:30am 10.4 5.5 6.7 78 1.7 SSE 22 32 12 17 - - 0.0
18/08:00am 10.4 5.6 7.3 81 1.5 S 22 33 12 18 - - 0.0
18/07:30am 10.1 5.2 7.0 81 1.5 S 22 33 12 18 - - 0.0
18/07:00am 10.0 5.4 6.7 80 1.6 S 20 33 11 18 - - 0.0
18/06:30am 9.9 5.0 7.0 82 1.4 S 22 33 12 18 - - 0.0

Other Formats:

Comma delimited format used in spreadsheet applications
http://www.bom.gov.au/fwo/IDV60801/IDV60801.94846.axf

JavaScript Object Notation format (JSON) in row-major order
http://www.bom.gov.au/fwo/IDV60801/IDV60801.94846.json